Time;durP1;ratioP1;P1;durP2;ratioP2;P2;SDS_P1;SDS_P2;PMS_P1;PMS_P2;Temp;Humidity;BMP_temperature;BMP_pressure;BME280_temperature;BME280_humidity;BME280_pressure;Samples;Min_cycle;Max_cycle;Signal;HPM_P1;HPM_P2
2021/05/22 00:01:03;;;;;;;4.28;0.20;;;14.60;99.90;;;14.15;69.06;100225.56;4973708;28;20050;-47
2021/05/22 00:03:29;;;;;;;2.58;0.30;;;14.60;99.90;;;14.11;69.36;100219.84;4973493;28;20077;-47
2021/05/22 00:05:54;;;;;;;1.95;0.20;;;14.70;99.90;;;14.09;69.54;100219.22;4973824;28;20157;-47
2021/05/22 00:08:21;;;;;;;2.72;0.20;;;14.60;99.90;;;14.13;69.38;100230.97;4973458;28;20043;-48
2021/05/22 00:10:47;;;;;;;3.50;0.30;;;14.60;99.90;;;14.17;68.96;100229.66;4973900;28;20037;-47
2021/05/22 00:13:17;;;;;;;1.48;0.20;;;14.60;99.90;;;14.18;69.19;100235.66;4973456;28;20498;-51
2021/05/22 00:15:44;;;;;;;1.73;0.20;;;14.70;99.90;;;14.12;69.50;100229.34;4973850;28;20394;-47
2021/05/22 00:18:10;;;;;;;2.75;0.20;;;14.60;99.90;;;14.12;69.35;100225.91;4973758;28;20113;-49
2021/05/22 00:20:36;;;;;;;0.93;0.20;;;14.60;99.90;;;14.11;69.57;100219.84;4969834;28;20085;-53
2021/05/22 00:23:03;;;;;;;4.40;0.30;;;14.60;99.90;;;14.13;69.49;100225.75;4970540;28;20379;-52
2021/05/22 00:25:29;;;;;;;3.85;0.52;;;14.60;99.90;;;14.13;69.47;100217.88;4970054;28;20039;-55
2021/05/22 00:27:55;;;;;;;2.42;0.28;;;14.60;99.90;;;14.15;69.16;100207.22;4970280;28;20450;-51
2021/05/22 00:30:21;;;;;;;1.35;0.20;;;14.60;99.90;;;14.17;68.94;100210.50;4970323;28;20080;-52
2021/05/22 00:32:47;;;;;;;1.85;0.20;;;14.70;99.90;;;14.15;69.43;100208.03;4970109;28;20030;-48
2021/05/22 00:35:13;;;;;;;1.48;0.35;;;14.70;99.90;;;14.10;69.73;100201.69;4970393;28;20117;-47
2021/05/22 00:37:39;;;;;;;3.78;0.10;;;14.60;99.90;;;14.05;69.98;100198.78;4970296;28;20556;-48
2021/05/22 00:40:07;;;;;;;1.13;0.30;;;14.60;99.90;;;14.02;70.10;100199.94;4970350;28;20034;-48
2021/05/22 00:42:36;;;;;;;1.42;0.25;;;14.60;99.90;;;14.05;69.94;100217.09;4969726;28;20050;-52
2021/05/22 00:45:19;;;;;;;3.03;0.30;;;14.60;99.90;;;14.09;69.89;100216.59;4962692;28;20518;-49
2021/05/22 00:47:56;;;;;;;4.45;0.30;;;14.60;99.90;;;14.11;70.18;100198.91;4969899;28;20070;-49
2021/05/22 00:50:42;;;;;;;0.75;0.20;;;14.60;99.90;;;14.12;70.35;100211.00;4969824;28;20446;-49
2021/05/22 00:53:10;;;;;;;2.88;0.20;;;14.60;99.90;;;14.12;69.88;100218.88;4969751;28;20045;-52
2021/05/22 00:55:36;;;;;;;1.85;0.20;;;14.60;99.90;;;14.14;70.04;100214.28;4970086;28;20057;-50
2021/05/22 00:58:05;;;;;;;2.33;0.20;;;14.60;99.90;;;14.14;70.27;100213.47;4969563;28;20038;-48
2021/05/22 01:00:44;;;;;;;1.95;0.20;;;14.70;99.90;;;14.19;70.13;100211.91;4969938;28;20027;-48
2021/05/22 01:03:18;;;;;;;1.75;0.25;;;14.70;99.90;;;14.24;70.07;100206.97;4952400;28;20062;-48
2021/05/22 01:05:45;;;;;;;1.63;0.30;;;14.80;99.90;;;14.14;70.69;100209.03;4970009;28;20073;-50
2021/05/22 01:08:19;;;;;;;1.15;0.20;;;14.70;99.90;;;14.12;71.54;100197.91;4969285;28;20074;-48
2021/05/22 01:10:58;;;;;;;4.50;0.52;;;14.70;99.90;;;14.12;71.42;100200.53;4970077;28;20046;-50
2021/05/22 01:13:27;;;;;;;2.47;0.30;;;14.70;99.90;;;14.16;71.21;100201.81;4969265;28;20459;-48
2021/05/22 01:15:55;;;;;;;4.93;0.30;;;14.70;99.90;;;14.12;71.76;100205.78;4969896;28;20470;-54
2021/05/22 01:18:23;;;;;;;5.50;0.20;;;14.70;99.90;;;13.99;72.91;100200.28;4969412;28;20046;-54
2021/05/22 01:21:04;;;;;;;2.45;0.28;;;14.60;99.90;;;13.83;74.15;100187.25;4969329;28;20046;-54
2021/05/22 01:23:41;;;;;;;1.75;0.20;;;14.50;99.90;;;13.94;73.25;100186.88;4969078;28;20125;-49
2021/05/22 01:26:10;;;;;;;1.60;0.20;;;14.40;99.90;;;14.17;72.17;100177.25;4952231;28;20122;-54
2021/05/22 01:28:38;;;;;;;2.95;0.28;;;14.60;99.90;;;14.20;72.15;100179.50;4951845;28;20050;-50
2021/05/22 01:31:07;;;;;;;6.93;0.45;;;14.70;99.90;;;14.26;72.13;100183.22;4969031;28;20042;-50
2021/05/22 01:33:35;;;;;;;3.30;0.20;;;14.70;99.90;;;14.36;72.09;100185.59;4969032;28;20131;-52
2021/05/22 01:36:02;;;;;;;1.70;0.20;;;14.90;99.90;;;14.49;71.66;100199.78;4951920;28;20043;-53
2021/05/22 01:38:28;;;;;;;2.85;0.40;;;14.90;99.90;;;14.55;71.85;100182.53;4968996;28;20038;-50
2021/05/22 01:40:54;;;;;;;1.80;0.20;;;15.00;99.90;;;14.50;72.37;100177.81;4968643;28;20035;-54
2021/05/22 01:43:21;;;;;;;9.70;0.22;;;15.00;99.90;;;14.76;71.66;100166.13;4969391;28;20061;-54
2021/05/22 01:45:50;;;;;;;2.60;0.20;;;15.10;99.90;;;14.98;70.55;100167.06;4969090;28;20034;-52
2021/05/22 01:48:25;;;;;;;5.05;0.30;;;15.30;99.90;;;15.06;70.94;100185.34;4951860;28;20170;-49
2021/05/22 01:51:07;;;;;;;4.80;0.38;;;15.50;99.90;;;15.07;71.03;100186.97;4968632;28;20502;-52
2021/05/22 01:53:35;;;;;;;3.63;0.65;;;15.50;99.90;;;15.24;70.16;100164.78;4964989;28;20039;-48
2021/05/22 01:56:02;;;;;;;4.55;0.43;;;15.60;99.90;;;15.34;69.80;100167.94;4968739;28;20043;-48
2021/05/22 01:58:28;;;;;;;4.00;0.20;;;15.80;99.90;;;15.36;69.78;100178.25;4951234;28;20035;-48
2021/05/22 02:00:54;;;;;;;2.10;0.20;;;15.80;99.90;;;15.42;69.86;100173.09;4968204;28;20076;-52
2021/05/22 02:03:47;;;;;;;6.53;0.30;;;15.90;99.90;;;15.51;69.40;100166.75;4951280;28;20501;-56
2021/05/22 02:06:25;;;;;;;6.65;0.52;;;16.00;99.90;;;15.50;69.64;100167.75;4950981;28;20170;-55
2021/05/22 02:08:55;;;;;;;5.57;0.70;;;16.00;99.90;;;15.54;69.33;100165.56;4951269;28;20483;-54
2021/05/22 02:11:23;;;;;;;3.45;0.20;;;16.00;99.90;;;15.53;69.64;100156.88;4968248;28;20043;-55
2021/05/22 02:13:51;;;;;;;7.72;0.38;;;16.00;99.90;;;15.55;69.80;100157.50;4968524;28;20126;-54
2021/05/22 02:16:29;;;;;;;5.68;0.40;;;16.00;99.90;;;15.52;70.54;100157.06;4950630;28;20093;-53
2021/05/22 02:18:58;;;;;;;2.95;0.20;;;16.00;99.90;;;15.53;70.07;100164.75;4968875;28;20066;-53
2021/05/22 02:21:27;;;;;;;2.88;0.20;;;16.00;99.90;;;15.48;70.52;100168.94;4967915;28;20075;-53
2021/05/22 02:23:54;;;;;;;7.97;0.80;;;16.00;99.90;;;15.46;70.51;100179.63;4951318;28;20495;-53
2021/05/22 02:26:27;;;;;;;3.88;0.30;;;16.00;99.90;;;15.44;70.82;100180.78;4950667;28;20482;-53
2021/05/22 02:28:56;;;;;;;5.88;0.43;;;16.00;99.90;;;15.39;71.07;100177.91;4968166;28;20106;-54
2021/05/22 02:31:30;;;;;;;3.85;0.20;;;15.90;99.90;;;15.39;71.29;100168.22;4950695;28;20042;-54
2021/05/22 02:34:01;;;;;;;4.35;0.25;;;15.90;99.90;;;15.39;71.14;100165.59;4950418;28;20046;-48
2021/05/22 02:36:27;;;;;;;3.92;0.50;;;15.90;99.90;;;15.37;71.34;100164.94;4950617;28;20070;-54
2021/05/22 02:38:53;;;;;;;5.90;0.57;;;15.90;99.90;;;15.39;71.10;100164.78;4960510;28;20121;-50
2021/05/22 02:43:58;;;;;;;7.22;1.25;;;15.90;99.90;;;15.40;71.34;100169.03;4559610;26;20054;-48
2021/05/22 02:46:25;;;;;;;4.50;0.30;;;15.90;99.90;;;15.38;71.21;100161.34;4947874;28;20038;-48
2021/05/22 02:48:54;;;;;;;3.20;0.40;;;15.90;99.90;;;15.35;71.98;100161.69;4949121;28;20520;-50
2021/05/22 02:51:24;;;;;;;5.00;0.20;;;15.90;99.90;;;15.34;72.21;100164.50;4947346;29;20043;-52
2021/05/22 02:53:52;;;;;;;9.40;0.60;;;15.80;99.90;;;15.33;72.09;100161.06;4965573;28;20047;-50
2021/05/22 02:56:20;;;;;;;2.90;0.30;;;15.90;99.90;;;15.43;71.57;100164.22;4946427;28;20058;-49
2021/05/22 02:58:48;;;;;;;3.75;0.40;;;15.90;99.90;;;15.41;71.68;100179.34;4947429;28;20177;-48
2021/05/22 03:01:15;;;;;;;6.05;0.70;;;15.90;99.90;;;15.40;71.74;100179.53;4960066;28;20042;-49
2021/05/22 03:03:42;;;;;;;5.25;0.20;;;15.90;99.90;;;15.36;72.34;100189.56;4967923;28;20122;-52
2021/05/22 03:06:08;;;;;;;4.50;0.20;;;15.90;99.90;;;15.36;72.36;100191.38;4948924;28;20146;-48
2021/05/22 03:08:46;;;;;;;4.82;0.55;;;15.80;99.90;;;15.31;73.22;100191.94;4967822;28;20038;-47
2021/05/22 03:11:13;;;;;;;7.00;0.25;;;15.80;99.90;;;15.26;73.36;100194.28;4967250;28;20043;-51
2021/05/22 03:13:39;;;;;;;5.85;0.45;;;15.80;99.90;;;15.17;74.27;100193.56;4940031;29;20035;-49
2021/05/22 03:16:05;;;;;;;6.20;0.30;;;15.80;99.90;;;15.14;74.23;100187.84;4964612;28;20035;-51
2021/05/22 03:18:31;;;;;;;3.10;0.30;;;15.70;99.90;;;15.12;74.92;100179.38;4967565;28;20026;-50
2021/05/22 03:20:57;;;;;;;6.25;0.20;;;15.70;99.90;;;15.05;75.13;100188.94;4968226;28;20033;-50
2021/05/22 03:23:24;;;;;;;4.20;0.50;;;15.60;99.90;;;14.93;76.02;100184.16;4941843;28;20130;-52
2021/05/22 03:25:50;;;;;;;9.85;0.50;;;15.50;99.90;;;14.90;76.13;100202.84;4967866;28;20118;-54
2021/05/22 03:28:16;;;;;;;4.97;0.20;;;15.50;99.90;;;14.84;76.12;100195.69;4967359;28;20130;-54
2021/05/22 03:30:42;;;;;;;5.15;0.50;;;15.40;99.90;;;14.74;76.50;100203.00;4968158;28;20149;-54
2021/05/22 03:33:08;;;;;;;2.60;0.20;;;15.30;99.90;;;14.71;76.70;100205.97;4967866;28;20367;-55
2021/05/22 03:35:34;;;;;;;4.75;0.50;;;15.30;99.90;;;14.69;77.35;100196.66;4967654;28;20035;-53
2021/05/22 03:38:00;;;;;;;5.20;0.32;;;15.20;99.90;;;14.69;76.46;100196.66;4968169;28;20053;-52
2021/05/22 03:40:26;;;;;;;7.75;0.45;;;15.20;99.90;;;14.61;77.00;100184.47;4958293;28;20073;-53
2021/05/22 03:42:52;;;;;;;3.60;0.20;;;15.20;99.90;;;14.59;77.09;100196.94;4959721;28;20038;-54
2021/05/22 03:45:17;;;;;;;6.53;0.28;;;15.20;99.90;;;14.56;77.22;100199.91;4967668;28;20089;-54
2021/05/22 03:47:43;;;;;;;3.55;0.30;;;15.10;99.90;;;14.57;77.10;100196.28;4967377;28;20038;-54
2021/05/22 03:50:11;;;;;;;6.35;0.30;;;15.10;99.90;;;14.52;77.35;100190.75;4967648;28;20145;-49
2021/05/22 03:52:37;;;;;;;3.30;0.50;;;15.10;99.90;;;14.51;77.09;100189.94;4967076;28;20046;-49
2021/05/22 03:55:07;;;;;;;4.47;0.65;;;15.00;99.90;;;14.52;77.13;100191.56;4970278;28;20041;-50
2021/05/22 03:57:33;;;;;;;2.03;0.17;;;15.00;99.90;;;14.58;76.43;100190.88;4970933;28;20058;-49
2021/05/22 03:59:59;;;;;;;4.85;0.57;;;15.10;99.90;;;14.60;76.27;100204.63;4971167;28;20544;-50
2021/05/22 04:02:25;;;;;;;4.90;0.20;;;15.10;99.90;;;14.58;76.48;100211.84;4971190;28;20041;-49
2021/05/22 04:04:51;;;;;;;4.15;0.32;;;15.10;99.90;;;14.56;76.87;100213.00;4970814;28;20046;-48
2021/05/22 04:07:17;;;;;;;5.20;0.40;;;15.10;99.90;;;14.54;76.80;100209.75;4971007;28;20110;-50
2021/05/22 04:09:43;;;;;;;5.38;0.25;;;15.10;99.90;;;14.57;76.47;100214.66;4960329;28;20164;-48
2021/05/22 04:12:09;;;;;;;4.13;0.40;;;15.10;99.90;;;14.63;75.95;100206.06;4964092;28;20046;-50
2021/05/22 04:14:35;;;;;;;6.30;0.40;;;15.00;99.90;;;14.82;75.02;100191.63;4970723;28;20474;-53
2021/05/22 04:17:00;;;;;;;2.47;0.40;;;15.30;99.90;;;14.97;74.61;100202.16;4970772;28;20057;-54
2021/05/22 04:19:26;;;;;;;5.50;0.20;;;15.50;99.90;;;15.07;73.88;100202.72;4970815;28;20035;-54
2021/05/22 04:21:52;;;;;;;4.60;0.50;;;15.60;99.90;;;15.11;74.05;100217.91;4970384;28;20039;-54
2021/05/22 04:24:18;;;;;;;5.65;0.30;;;15.70;99.90;;;15.35;72.92;100223.88;4970939;28;20521;-54
2021/05/22 04:26:44;;;;;;;2.63;0.30;;;16.00;99.90;;;15.76;71.60;100216.34;4970387;28;20121;-54
2021/05/22 04:29:10;;;;;;;1.63;0.20;;;16.40;99.90;;;15.65;70.88;100219.44;4962786;28;20037;-52
2021/05/22 04:31:36;;;;;;;6.22;0.50;;;16.50;99.90;;;15.39;71.92;100222.53;4970599;28;20030;-54
2021/05/22 04:34:03;;;;;;;3.38;0.95;;;16.20;99.90;;;15.21;72.56;100222.88;4952128;28;20203;-52
2021/05/22 04:36:29;;;;;;;4.82;0.30;;;15.90;99.90;;;15.09;72.47;100225.16;4970427;28;20120;-53
2021/05/22 04:38:55;;;;;;;3.47;0.65;;;15.80;99.90;;;15.07;71.81;100218.44;4970412;28;20114;-53
2021/05/22 04:41:21;;;;;;;3.65;0.15;;;15.60;99.90;;;15.06;71.55;100217.63;4970283;28;20117;-50
2021/05/22 04:43:47;;;;;;;4.38;0.20;;;15.60;99.90;;;15.03;71.38;100219.81;4962009;28;20113;-53
2021/05/22 04:46:13;;;;;;;3.88;0.38;;;15.60;99.90;;;15.01;71.33;100216.53;4969869;28;20505;-54
2021/05/22 04:48:38;;;;;;;5.72;0.43;;;15.60;99.90;;;14.96;71.43;100226.75;4970421;28;20074;-50
2021/05/22 04:51:05;;;;;;;3.78;0.10;;;15.50;99.90;;;14.92;71.12;100229.72;4969715;28;20046;-54
2021/05/22 04:53:33;;;;;;;1.88;0.20;;;15.40;99.90;;;14.91;70.85;100233.34;4949418;28;20086;-53
2021/05/22 04:55:59;;;;;;;3.53;0.20;;;15.40;99.90;;;14.89;70.65;100226.66;4967180;28;20467;-54
2021/05/22 04:58:25;;;;;;;4.75;0.70;;;15.40;99.90;;;14.86;70.47;100222.56;4970125;28;20060;-51
2021/05/22 05:00:51;;;;;;;3.75;0.10;;;15.40;99.90;;;14.84;70.34;100224.56;4969839;28;20034;-54
2021/05/22 05:03:18;;;;;;;3.70;0.20;;;15.30;99.90;;;14.86;70.03;100225.19;4970031;28;20042;-54
2021/05/22 05:05:45;;;;;;;2.53;0.20;;;15.40;99.90;;;14.84;70.50;100224.56;4968963;28;20041;-52
2021/05/22 05:08:18;;;;;;;3.17;0.20;;;15.40;99.90;;;14.82;70.27;100223.91;4969699;28;20038;-52
2021/05/22 05:10:46;;;;;;;3.30;0.13;;;15.40;99.90;;;14.84;69.95;100231.59;4970272;28;20216;-52
2021/05/22 05:13:13;;;;;;;2.13;0.15;;;15.40;99.90;;;14.86;69.46;100237.50;4969306;28;20073;-51
2021/05/22 05:15:40;;;;;;;2.40;0.30;;;15.40;99.90;;;14.85;69.39;100234.06;4969667;28;20138;-54
2021/05/22 05:18:07;;;;;;;4.20;0.13;;;15.40;99.90;;;14.80;69.59;100238.19;4970037;28;20113;-54
2021/05/22 05:20:33;;;;;;;4.65;0.13;;;15.30;99.90;;;14.82;69.51;100249.31;4969543;28;20035;-54
2021/05/22 05:22:59;;;;;;;8.80;0.30;;;15.40;99.90;;;14.80;69.82;100251.31;4969664;28;20398;-51
2021/05/22 05:25:26;;;;;;;3.17;0.30;;;15.30;99.90;;;14.78;69.59;100255.91;4969258;28;20045;-48
2021/05/22 05:27:51;;;;;;;1.52;0.10;;;15.30;99.90;;;14.78;68.97;100258.53;4969515;28;20153;-48
2021/05/22 05:30:18;;;;;;;1.52;0.30;;;15.30;99.90;;;14.82;68.07;100260.63;4968940;28;20122;-48
2021/05/22 05:32:45;;;;;;;2.55;0.10;;;15.30;99.90;;;14.91;66.20;100277.94;4969243;28;20027;-52
2021/05/22 05:35:11;;;;;;;2.72;0.10;;;15.30;99.90;;;14.94;65.78;100279.41;4968174;28;20485;-48
2021/05/22 05:37:38;;;;;;;4.68;0.10;;;15.40;99.90;;;14.90;66.09;100291.22;4968407;28;20126;-48
2021/05/22 05:40:07;;;;;;;4.07;0.10;;;15.40;99.90;;;14.88;65.62;100294.03;4961793;28;20023;-50
2021/05/22 05:42:34;;;;;;;7.13;0.22;;;15.40;99.90;;;14.93;64.59;100293.50;4966941;28;20455;-49
2021/05/22 05:45:03;;;;;;;4.50;0.17;;;15.40;99.90;;;14.95;64.13;100286.28;4969320;28;20038;-48
2021/05/22 05:47:29;;;;;;;0.30;0.00;;;15.40;99.90;;;14.93;64.24;100293.50;4968733;28;20535;-52
2021/05/22 05:49:55;;;;;;;3.58;0.22;;;15.50;99.90;;;14.90;64.20;100284.19;4969198;28;20089;-54
2021/05/22 05:52:20;;;;;;;3.53;0.20;;;15.40;99.90;;;14.87;65.02;100302.88;4968997;28;20588;-52
2021/05/22 05:54:46;;;;;;;4.30;0.20;;;15.40;99.90;;;14.83;65.43;100296.38;4969136;28;20197;-54
2021/05/22 05:57:12;;;;;;;3.20;0.10;;;15.40;99.90;;;14.83;64.69;100298.97;4968987;28;20451;-51
2021/05/22 05:59:38;;;;;;;0.63;0.10;;;15.40;99.90;;;14.84;64.36;100298.00;4968577;28;20199;-53
2021/05/22 06:02:04;;;;;;;2.30;0.10;;;15.40;99.90;;;14.84;64.45;100300.63;4968731;28;20038;-53
2021/05/22 06:04:30;;;;;;;3.05;0.10;;;15.30;99.90;;;14.83;63.91;100293.75;4968903;28;20034;-53
2021/05/22 06:06:55;;;;;;;1.30;0.10;;;15.40;99.90;;;14.87;63.60;100288.97;4968850;28;20545;-53
2021/05/22 06:09:21;;;;;;;3.28;0.10;;;15.40;99.90;;;14.85;63.62;100291.75;4968837;28;20522;-54
2021/05/22 06:11:47;;;;;;;4.18;0.10;;;15.40;99.90;;;14.85;63.83;100304.88;4968486;28;20141;-51
2021/05/22 06:14:20;;;;;;;0.98;0.10;;;15.40;99.90;;;14.83;63.73;100298.97;4968651;28;20046;-53
2021/05/22 06:16:46;;;;;;;1.60;0.10;;;15.40;99.90;;;14.82;64.26;100313.09;4943814;28;20058;-53
2021/05/22 06:19:12;;;;;;;1.75;0.10;;;15.40;99.90;;;14.81;64.35;100319.31;4968129;28;20042;-54
2021/05/22 06:21:38;;;;;;;1.08;0.10;;;15.30;99.90;;;14.75;64.36;100314.78;4968519;28;20077;-52
2021/05/22 06:24:07;;;;;;;2.53;0.10;;;15.30;99.90;;;14.71;64.40;100326.59;4968225;28;20129;-51
2021/05/22 06:26:33;;;;;;;1.58;0.15;;;15.20;99.90;;;14.70;65.01;100324.16;4968679;28;20023;-49
2021/05/22 06:29:00;;;;;;;4.55;0.30;;;15.20;99.90;;;14.66;65.05;100318.44;4968217;28;20052;-51
2021/05/22 06:31:26;;;;;;;0.85;0.10;;;15.20;99.90;;;14.66;65.13;100307.94;4960393;28;20061;-49
2021/05/22 06:33:52;;;;;;;3.28;0.85;;;15.20;99.90;;;14.65;65.08;100306.31;4968197;28;20463;-51
2021/05/22 06:36:18;;;;;;;1.50;0.30;;;15.20;99.90;;;14.69;65.27;100312.84;4968736;28;20035;-55
2021/05/22 06:38:44;;;;;;;2.80;0.20;;;15.20;99.90;;;14.71;65.30;100317.91;4968436;28;20035;-51
2021/05/22 06:41:10;;;;;;;2.00;0.10;;;15.20;99.90;;;14.73;64.85;100321.19;4967965;28;20593;-52
2021/05/22 06:43:36;;;;;;;4.68;0.10;;;15.30;99.90;;;14.76;64.54;100316.41;4968001;28;20061;-52
2021/05/22 06:46:48;;;;;;;0.73;0.10;;;15.30;99.90;;;14.80;63.82;100330.81;4967895;28;20035;-49
2021/05/22 06:48:48;;;;;;;4.55;0.10;;;15.30;99.90;;;14.92;62.74;100337.28;4933068;28;20053;-51
2021/05/22 06:51:14;;;;;;;3.65;0.20;;;15.40;99.90;;;14.96;63.12;100339.56;4968004;28;20503;-53
2021/05/22 06:53:40;;;;;;;2.45;0.10;;;15.40;99.90;;;14.98;63.19;100330.53;4950615;28;20043;-50
2021/05/22 06:56:06;;;;;;;0.50;0.10;;;15.50;99.90;;;14.99;63.17;100334.78;4967617;28;20395;-53
2021/05/22 06:58:32;;;;;;;3.75;0.10;;;15.50;99.90;;;15.00;62.08;100328.53;4968147;28;20047;-53
2021/05/22 07:00:58;;;;;;;1.50;0.20;;;15.50;99.90;;;15.08;59.87;100322.41;4967615;28;20061;-52
2021/05/22 07:03:25;;;;;;;2.50;0.20;;;15.50;98.40;;;15.18;59.77;100333.44;4968099;28;20035;-54
2021/05/22 07:05:52;;;;;;;2.03;0.03;;;15.70;98.50;;;15.20;59.68;100341.97;4968036;28;20037;-54
2021/05/22 07:08:18;;;;;;;2.80;0.10;;;15.70;98.10;;;15.20;58.92;100342.78;4967369;28;20391;-54
2021/05/22 07:10:45;;;;;;;1.00;0.05;;;15.70;97.10;;;15.28;58.36;100345.34;4967867;28;20137;-54
2021/05/22 07:13:11;;;;;;;3.88;0.20;;;15.70;96.40;;;15.28;58.17;100339.28;4967231;28;20066;-52
2021/05/22 07:15:37;;;;;;;2.92;0.20;;;15.80;96.20;;;15.27;57.95;100348.13;4960426;28;20126;-51
2021/05/22 07:18:03;;;;;;;0.73;0.10;;;15.80;95.20;;;15.33;57.40;100336.94;4960277;28;20046;-56
2021/05/22 07:20:30;;;;;;;2.58;0.20;;;15.80;94.60;;;15.37;57.60;100347.88;4967776;28;20027;-50
2021/05/22 07:22:56;;;;;;;1.67;0.10;;;15.90;95.00;;;15.39;57.56;100341.47;4967911;28;20073;-49
2021/05/22 07:25:24;;;;;;;1.50;0.17;;;15.90;94.70;;;15.47;57.61;100358.97;4967600;28;20039;-49
2021/05/22 07:27:52;;;;;;;1.85;0.05;;;15.90;95.00;;;15.51;58.01;100358.44;4967633;28;20486;-49
2021/05/22 07:30:19;;;;;;;2.63;0.10;;;16.00;95.30;;;15.52;57.82;100354.00;4971150;28;20047;-49
2021/05/22 07:32:46;;;;;;;1.85;0.10;;;16.00;95.20;;;15.52;57.81;100361.88;4971412;28;20129;-48
2021/05/22 07:35:14;;;;;;;1.80;0.10;;;16.00;95.10;;;15.51;57.79;100366.31;4961506;28;20102;-49
2021/05/22 07:37:41;;;;;;;4.78;0.22;;;16.00;94.70;;;15.51;57.80;100371.56;4971110;28;20050;-50
2021/05/22 07:40:09;;;;;;;3.38;0.10;;;16.00;94.90;;;15.54;57.44;100365.94;4972149;28;20031;-48
2021/05/22 07:42:36;;;;;;;1.48;0.10;;;16.00;94.50;;;15.63;57.17;100368.50;4970759;28;20079;-53
2021/05/22 07:45:05;;;;;;;1.25;0.20;;;16.10;94.00;;;15.71;57.00;100365.78;4971553;28;20502;-50
2021/05/22 07:47:31;;;;;;;2.78;0.17;;;16.10;93.90;;;15.79;56.70;100357.84;4971385;28;20473;-47
2021/05/22 07:49:57;;;;;;;0.52;0.20;;;16.30;94.10;;;15.83;56.96;100357.28;4971775;28;20085;-48
2021/05/22 07:52:23;;;;;;;1.67;0.10;;;16.30;94.00;;;15.84;56.77;100358.09;4971460;28;20043;-50
2021/05/22 07:54:49;;;;;;;4.10;0.35;;;16.30;93.50;;;15.85;56.52;100357.09;4971253;28;20049;-52
2021/05/22 07:57:16;;;;;;;1.52;0.40;;;16.40;93.50;;;15.87;56.34;100357.75;4971251;28;20038;-46
2021/05/22 07:59:42;;;;;;;3.13;0.57;;;16.40;92.50;;;15.79;56.56;100365.72;4970778;28;20038;-46
2021/05/22 08:02:09;;;;;;;0.38;0.10;;;16.30;93.10;;;15.73;56.90;100362.00;4971139;28;20162;-47
2021/05/22 08:04:35;;;;;;;3.78;0.20;;;16.30;93.00;;;15.71;57.12;100371.03;4970722;28;20078;-48
2021/05/22 08:07:02;;;;;;;1.75;0.10;;;16.30;93.20;;;15.67;57.66;100375.03;4963314;28;20034;-48
2021/05/22 08:09:28;;;;;;;1.00;0.17;;;16.20;93.80;;;15.65;57.66;100374.38;4962099;28;20522;-49
2021/05/22 08:11:54;;;;;;;4.38;0.30;;;16.20;93.60;;;15.69;57.04;100367.78;4959536;28;20047;-50
2021/05/22 08:14:20;;;;;;;1.38;0.13;;;16.20;93.50;;;15.73;57.34;100367.25;4946436;28;20391;-49
2021/05/22 08:16:46;;;;;;;1.58;0.20;;;16.20;93.60;;;15.81;57.39;100367.16;4952493;28;20880;-49
2021/05/22 08:19:13;;;;;;;2.95;0.10;;;16.30;93.90;;;15.86;57.50;100364.81;4947894;28;20035;-47
2021/05/22 08:21:40;;;;;;;1.85;0.17;;;16.30;93.80;;;15.93;56.67;100370.16;4968659;28;20035;-46
2021/05/22 08:24:07;;;;;;;1.65;0.20;;;16.40;93.10;;;15.93;57.17;100378.03;4970507;28;20132;-47
2021/05/22 08:26:34;;;;;;;1.33;0.30;;;16.50;93.30;;;15.93;56.96;100375.41;4970530;28;20501;-48
2021/05/22 08:29:01;;;;;;;6.32;0.38;;;16.50;93.30;;;15.98;56.66;100380.13;4942427;28;20031;-46
2021/05/22 08:31:27;;;;;;;2.90;0.30;;;16.50;93.00;;;16.05;56.20;100373.16;4967275;28;20030;-46
2021/05/22 08:33:53;;;;;;;5.97;0.38;;;16.50;92.50;;;16.12;56.40;100369.59;4970354;28;20030;-48
2021/05/22 08:36:18;;;;;;;2.13;0.30;;;16.60;92.70;;;16.19;56.40;100369.69;4963222;28;20091;-47
2021/05/22 08:38:44;;;;;;;4.32;0.20;;;16.70;92.80;;;16.22;56.61;100359.63;4970143;28;20041;-47
2021/05/22 08:41:11;;;;;;;7.93;0.25;;;16.80;92.90;;;16.31;56.48;100362.13;4969583;28;20552;-46
2021/05/22 08:43:37;;;;;;;2.45;0.22;;;16.80;92.70;;;16.36;56.53;100354.53;4970096;28;20066;-48
2021/05/22 08:46:11;;;;;;;2.70;0.20;;;16.80;92.70;;;16.39;56.08;100351.53;4963036;28;20280;-48
2021/05/22 08:48:38;;;;;;;3.03;0.20;;;16.90;92.50;;;16.40;56.09;100355.78;4969930;28;20512;-49
2021/05/22 08:51:07;;;;;;;3.90;0.20;;;16.90;92.30;;;16.40;56.26;100343.44;4970507;28;20053;-48
2021/05/22 08:53:33;;;;;;;1.77;0.20;;;16.90;92.30;;;16.46;56.55;100344.53;4970204;28;20041;-48
2021/05/22 08:55:59;;;;;;;4.38;0.40;;;16.90;92.80;;;16.41;56.63;100339.81;4970446;28;20097;-51
2021/05/22 08:58:25;;;;;;;2.15;0.30;;;16.90;92.60;;;16.45;56.74;100343.72;4970724;28;20027;-49
2021/05/22 09:00:52;;;;;;;3.22;0.30;;;17.00;93.20;;;16.47;56.81;100339.09;4971012;28;20062;-47
2021/05/22 09:03:18;;;;;;;1.73;0.40;;;17.00;93.00;;;16.54;57.01;100342.56;4953884;28;20154;-48
2021/05/22 09:05:45;;;;;;;2.35;0.30;;;17.00;93.50;;;16.68;57.68;100348.81;4969193;28;20100;-48
2021/05/22 09:08:15;;;;;;;1.20;0.63;;;17.20;94.20;;;16.72;58.22;100360.59;4970726;28;20035;-49
2021/05/22 09:10:53;;;;;;;4.60;0.10;;;17.20;94.60;;;16.57;56.56;100362.44;4971266;28;20359;-48
2021/05/22 09:13:24;;;;;;;2.38;0.13;;;17.20;92.80;;;16.48;57.36;100358.31;4970594;28;20493;-49
2021/05/22 09:16:09;;;;;;;1.13;0.17;;;17.10;93.30;;;16.50;57.50;100361.56;4969736;28;20391;-51
2021/05/22 09:18:41;;;;;;;1.25;0.20;;;17.00;93.60;;;16.39;56.87;100364.66;4970389;28;20137;-47
2021/05/22 09:21:10;;;;;;;2.78;0.30;;;16.90;92.50;;;16.38;56.79;100357.78;4969954;28;20791;-48
2021/05/22 09:23:40;;;;;;;2.65;0.40;;;16.90;92.70;;;16.39;57.25;100360.22;4970454;28;20035;-46
2021/05/22 09:26:14;;;;;;;2.88;0.60;;;16.90;93.10;;;16.40;56.62;100345.25;4969906;28;20047;-49
2021/05/22 09:28:46;;;;;;;2.33;0.30;;;16.90;92.70;;;16.44;56.93;100351.78;4966178;28;20193;-50
2021/05/22 09:31:20;;;;;;;4.70;0.25;;;16.90;92.90;;;16.49;56.99;100354.69;4968515;28;20502;-46
2021/05/22 09:33:47;;;;;;;2.72;0.30;;;17.00;93.10;;;16.55;57.26;100362.63;4967961;28;20031;-48
2021/05/22 09:36:16;;;;;;;4.25;0.20;;;17.00;93.30;;;16.65;57.29;100364.97;4967606;28;20130;-51
2021/05/22 09:38:56;;;;;;;2.65;0.75;;;17.20;93.60;;;16.73;57.63;100367.50;4969388;28;20057;-50
2021/05/22 09:41:34;;;;;;;1.67;0.10;;;17.20;93.80;;;16.66;57.80;100371.88;4961717;28;20104;-48
2021/05/22 09:44:15;;;;;;;3.58;0.10;;;17.20;93.80;;;16.62;57.66;100370.56;4967396;28;20222;-47
2021/05/22 09:46:44;;;;;;;1.80;0.10;;;17.20;93.70;;;16.59;58.20;100363.06;4969739;28;20093;-48
2021/05/22 09:49:18;;;;;;;1.20;0.10;;;17.20;94.10;;;16.61;58.29;100368.94;4968275;28;20043;-48
2021/05/22 09:52:08;;;;;;;2.70;0.20;;;17.10;94.30;;;16.63;58.33;100366.94;4948903;28;20139;-49
2021/05/22 09:54:57;;;;;;;2.55;0.10;;;17.20;94.60;;;16.58;58.87;100364.06;4963810;28;20043;-52
2021/05/22 09:57:31;;;;;;;1.10;0.40;;;17.10;95.00;;;16.57;59.01;100372.94;4967103;28;20185;-50
2021/05/22 10:00:16;;;;;;;1.65;0.20;;;17.10;95.20;;;16.58;59.16;100367.50;4969474;28;20163;-51
2021/05/22 10:02:48;;;;;;;0.90;0.17;;;17.10;95.40;;;16.56;58.93;100363.44;4960943;28;20047;-51
2021/05/22 10:05:15;;;;;;;1.67;0.30;;;17.10;95.20;;;16.58;59.30;100364.06;4968615;28;20050;-50
2021/05/22 10:07:43;;;;;;;1.73;0.30;;;17.10;95.60;;;16.66;59.56;100366.59;4969478;28;20439;-47
2021/05/22 10:10:09;;;;;;;3.83;0.28;;;17.20;95.90;;;16.66;59.47;100363.97;4969072;28;20034;-47
2021/05/22 10:12:36;;;;;;;1.52;0.20;;;17.20;95.90;;;16.67;59.59;100365.59;4961476;28;20042;-47
2021/05/22 10:15:04;;;;;;;1.95;0.20;;;17.20;96.30;;;16.68;59.95;100366.44;4947430;28;20046;-53
2021/05/22 10:17:30;;;;;;;1.25;0.17;;;17.20;96.50;;;16.66;60.24;100369.25;4969018;28;20043;-51
2021/05/22 10:19:57;;;;;;;1.48;0.20;;;17.20;96.80;;;16.77;60.22;100367.94;4946133;28;20133;-49